Time;durP1;ratioP1;P1;durP2;ratioP2;P2;SDS_P1;SDS_P2;PMS_P1;PMS_P2;Temp;Humidity;BMP_temperature;BMP_pressure;BME280_temperature;BME280_humidity;BME280_pressure;Samples;Min_cycle;Max_cycle;Signal;HPM_P1;HPM_P2
2021/12/10 00:00:26;;;;;;;24.38;17.58;;;14.70;82.10;;;;;;4135232;28;20131;-58
2021/12/10 00:02:49;;;;;;;23.13;16.25;;;14.80;82.50;;;;;;4141878;28;20132;-59
2021/12/10 00:05:11;;;;;;;28.00;17.15;;;14.90;81.80;;;;;;4142836;28;20065;-59
2021/12/10 00:07:35;;;;;;;23.80;17.00;;;14.90;81.60;;;;;;4158479;28;20046;-59
2021/12/10 00:10:01;;;;;;;26.08;17.98;;;14.90;81.50;;;;;;4156661;28;20049;-59
2021/12/10 00:12:27;;;;;;;23.40;17.10;;;15.00;81.40;;;;;;4136784;28;20167;-59
2021/12/10 00:14:49;;;;;;;24.23;17.08;;;15.00;81.30;;;;;;4142013;28;20065;-61
2021/12/10 00:17:14;;;;;;;26.70;16.48;;;15.00;81.40;;;;;;4145903;28;20050;-60
2021/12/10 00:19:41;;;;;;;23.90;16.60;;;15.10;81.10;;;;;;4158303;28;20464;-59
2021/12/10 00:22:08;;;;;;;23.85;16.15;;;15.10;81.10;;;;;;4157719;28;20496;-61
2021/12/10 00:24:32;;;;;;;19.98;15.38;;;15.10;80.70;;;;;;4157871;28;20054;-62
2021/12/10 00:26:54;;;;;;;27.80;17.58;;;15.10;80.60;;;;;;4127776;28;20049;-58
2021/12/10 00:29:18;;;;;;;23.98;17.88;;;15.10;80.70;;;;;;4141383;28;20038;-58
2021/12/10 00:31:47;;;;;;;22.90;17.20;;;15.10;80.80;;;;;;4142046;28;20046;-59
2021/12/10 00:34:14;;;;;;;24.50;16.20;;;15.10;80.40;;;;;;4141920;28;20100;-58
2021/12/10 00:36:37;;;;;;;24.30;17.20;;;15.00;80.70;;;;;;4155744;28;20452;-58
2021/12/10 00:39:01;;;;;;;24.20;17.02;;;15.00;81.00;;;;;;4157960;28;20500;-58
2021/12/10 00:41:26;;;;;;;23.20;16.45;;;15.00;80.90;;;;;;4158062;28;20457;-59
2021/12/10 00:43:48;;;;;;;24.15;15.73;;;15.00;80.90;;;;;;4151723;28;20129;-58
2021/12/10 00:46:10;;;;;;;22.45;15.90;;;15.00;81.30;;;;;;4154979;28;20374;-59
2021/12/10 00:48:32;;;;;;;24.40;17.52;;;15.00;81.70;;;;;;4143057;28;20058;-58
2021/12/10 00:50:57;;;;;;;23.20;16.27;;;15.10;81.60;;;;;;4157890;28;20073;-59
2021/12/10 00:53:19;;;;;;;23.45;16.58;;;15.10;81.20;;;;;;4157488;28;20137;-58
2021/12/10 00:55:41;;;;;;;25.90;16.13;;;15.20;80.80;;;;;;4148674;28;20050;-58
2021/12/10 00:58:06;;;;;;;24.23;16.63;;;15.30;80.40;;;;;;4141799;28;20054;-58
2021/12/10 01:00:31;;;;;;;20.33;14.85;;;15.30;80.10;;;;;;4140222;28;20405;-60
2021/12/10 01:02:54;;;;;;;23.50;15.73;;;15.40;80.00;;;;;;4143831;28;20041;-57
2021/12/10 01:05:16;;;;;;;27.23;16.35;;;15.40;80.00;;;;;;4152152;28;20045;-58
2021/12/10 01:07:39;;;;;;;25.77;16.60;;;15.40;80.20;;;;;;4161135;28;20393;-59
2021/12/10 01:10:08;;;;;;;24.80;15.73;;;15.40;80.00;;;;;;4160766;28;20057;-59
2021/12/10 01:12:35;;;;;;;22.02;15.75;;;15.40;79.70;;;;;;4145520;28;20046;-58
2021/12/10 01:15:18;;;;;;;21.20;15.65;;;15.40;80.10;;;;;;4159108;28;20054;-59
2021/12/10 01:25:55;;;;;;;22.42;16.13;;;15.30;80.40;;;;;;4127821;28;20516;-58
2021/12/10 01:28:17;;;;;;;23.40;16.93;;;15.30;80.20;;;;;;4159100;28;20053;-58
2021/12/10 01:30:42;;;;;;;23.80;16.67;;;15.30;80.40;;;;;;4160186;28;20076;-58
2021/12/10 01:33:08;;;;;;;21.20;15.98;;;15.30;81.30;;;;;;4146379;28;20058;-59
2021/12/10 01:35:34;;;;;;;22.17;15.55;;;15.30;80.60;;;;;;4127917;28;20524;-58
2021/12/10 01:37:57;;;;;;;21.33;15.57;;;15.40;80.30;;;;;;4128013;28;20556;-58
2021/12/10 01:40:20;;;;;;;20.38;14.57;;;15.50;80.10;;;;;;4127817;28;20057;-58
2021/12/10 01:42:46;;;;;;;23.95;15.68;;;15.50;79.90;;;;;;4127897;28;20100;-58
2021/12/10 01:45:18;;;;;;;23.63;15.27;;;15.50;79.60;;;;;;4127814;28;20509;-58
2021/12/10 01:47:42;;;;;;;23.95;14.73;;;15.50;79.40;;;;;;4126975;28;20050;-58
2021/12/10 01:50:06;;;;;;;27.63;16.15;;;15.50;79.30;;;;;;4128912;28;20050;-59
2021/12/10 01:52:28;;;;;;;23.48;15.18;;;15.50;79.30;;;;;;4144009;28;20037;-58
2021/12/10 01:54:53;;;;;;;21.98;15.38;;;15.50;79.30;;;;;;4160064;28;20061;-59
2021/12/10 01:57:17;;;;;;;26.50;17.00;;;15.50;79.10;;;;;;4160085;28;20053;-58
2021/12/10 01:59:40;;;;;;;24.25;14.98;;;15.50;79.40;;;;;;4160291;28;20504;-58
2021/12/10 02:02:10;;;;;;;27.50;16.08;;;15.50;79.40;;;;;;4160092;28;20055;-59
2021/12/10 02:04:35;;;;;;;26.30;15.13;;;15.40;79.60;;;;;;4145469;28;20081;-58
2021/12/10 02:07:00;;;;;;;21.55;16.40;;;15.40;79.60;;;;;;4133467;28;20042;-58
2021/12/10 02:09:22;;;;;;;21.23;14.95;;;15.30;79.80;;;;;;4127423;28;20097;-59
2021/12/10 02:11:45;;;;;;;20.52;13.98;;;15.30;79.90;;;;;;4127497;28;20054;-58
2021/12/10 02:14:08;;;;;;;21.85;13.55;;;15.30;79.90;;;;;;4127305;28;20097;-59
2021/12/10 02:16:31;;;;;;;29.25;14.13;;;15.30;79.80;;;;;;4159135;28;20132;-59
2021/12/10 02:18:53;;;;;;;23.08;14.65;;;15.30;79.80;;;;;;4159696;28;20046;-58
2021/12/10 02:21:19;;;;;;;25.63;14.35;;;15.20;80.20;;;;;;4159702;28;20081;-58
2021/12/10 02:23:45;;;;;;;24.05;14.90;;;15.30;80.40;;;;;;4152329;28;20041;-59
2021/12/10 02:26:10;;;;;;;22.55;15.30;;;15.40;80.30;;;;;;4143227;28;20052;-59
2021/12/10 02:28:32;;;;;;;24.73;14.88;;;15.50;80.00;;;;;;4143374;28;20085;-58
2021/12/10 02:30:56;;;;;;;24.00;14.70;;;15.50;79.50;;;;;;4143255;28;20417;-58
2021/12/10 02:33:18;;;;;;;19.92;14.93;;;15.50;79.20;;;;;;4148687;28;20135;-58
2021/12/10 02:35:40;;;;;;;23.27;15.00;;;15.60;79.10;;;;;;4158327;28;20049;-58
2021/12/10 02:38:05;;;;;;;21.80;14.75;;;15.60;79.00;;;;;;4159428;28;20049;-59
2021/12/10 02:40:30;;;;;;;22.40;12.93;;;15.60;78.60;;;;;;4144206;28;20430;-58
2021/12/10 02:42:53;;;;;;;21.27;13.48;;;15.70;78.50;;;;;;4143882;28;20096;-59
2021/12/10 02:45:18;;;;;;;23.65;13.95;;;15.70;78.50;;;;;;4143213;28;20049;-58
2021/12/10 02:47:40;;;;;;;20.58;12.93;;;15.70;78.30;;;;;;4143114;28;20073;-58
2021/12/10 02:50:02;;;;;;;17.55;13.00;;;15.70;78.50;;;;;;4142861;28;20065;-59
2021/12/10 02:52:26;;;;;;;17.35;12.95;;;15.70;78.70;;;;;;4152063;28;20053;-59
2021/12/10 02:54:50;;;;;;;17.50;12.25;;;15.70;78.50;;;;;;4158225;28;20103;-59
2021/12/10 02:57:16;;;;;;;17.38;12.05;;;15.60;78.40;;;;;;4130906;28;20062;-58
2021/12/10 02:59:40;;;;;;;16.85;11.25;;;15.60;78.60;;;;;;4135375;28;20069;-58
2021/12/10 03:02:04;;;;;;;18.17;11.02;;;15.60;78.70;;;;;;4142526;28;20104;-59
2021/12/10 03:04:27;;;;;;;18.70;10.68;;;15.60;78.50;;;;;;4153177;28;20123;-58
2021/12/10 03:06:53;;;;;;;18.50;11.40;;;15.60;78.70;;;;;;4159113;28;20064;-58
2021/12/10 03:09:17;;;;;;;15.75;10.23;;;15.60;78.50;;;;;;4159127;28;20493;-58
2021/12/10 03:11:46;;;;;;;18.25;9.80;;;15.50;78.70;;;;;;4158859;28;20049;-58
2021/12/10 03:14:11;;;;;;;17.17;9.68;;;15.60;78.70;;;;;;4126116;28;20052;-58
2021/12/10 03:16:34;;;;;;;13.93;9.45;;;15.60;78.80;;;;;;4145915;28;20508;-58
2021/12/10 03:18:56;;;;;;;18.33;10.20;;;15.60;78.80;;;;;;4158587;28;20409;-58
2021/12/10 03:21:18;;;;;;;14.07;9.50;;;15.60;78.90;;;;;;4158801;28;20053;-58
2021/12/10 03:23:45;;;;;;;13.10;8.95;;;15.60;78.90;;;;;;4158813;28;20167;-59
2021/12/10 03:26:11;;;;;;;11.90;8.70;;;15.70;78.90;;;;;;4158506;28;20041;-58
2021/12/10 03:28:34;;;;;;;19.85;9.07;;;15.70;78.30;;;;;;4150261;28;20493;-59
2021/12/10 03:30:56;;;;;;;15.55;8.75;;;15.80;78.10;;;;;;4126237;28;20098;-58
2021/12/10 03:33:19;;;;;;;12.70;8.50;;;15.80;78.00;;;;;;4126343;28;20042;-58
2021/12/10 03:35:45;;;;;;;16.10;9.25;;;15.80;77.80;;;;;;4111442;28;20078;-57
2021/12/10 03:38:09;;;;;;;15.82;8.93;;;15.80;77.80;;;;;;4126165;28;20050;-58
2021/12/10 03:40:32;;;;;;;12.35;7.68;;;15.80;78.00;;;;;;4137051;28;20049;-58
2021/12/10 03:42:58;;;;;;;14.25;8.10;;;15.80;77.70;;;;;;4158251;28;20049;-58
2021/12/10 03:45:22;;;;;;;14.77;8.63;;;15.80;77.80;;;;;;4151827;28;20061;-57
2021/12/10 03:47:45;;;;;;;16.20;8.77;;;15.80;77.70;;;;;;4134320;28;20095;-58
2021/12/10 03:50:08;;;;;;;16.52;9.10;;;15.90;77.70;;;;;;4142431;28;20140;-59
2021/12/10 03:52:30;;;;;;;14.57;8.15;;;15.90;77.50;;;;;;4142071;28;20501;-58
2021/12/10 03:54:54;;;;;;;15.45;8.63;;;15.90;77.50;;;;;;4142038;28;20046;-58
2021/12/10 03:57:18;;;;;;;18.13;9.18;;;15.90;77.40;;;;;;4141993;28;20104;-58
2021/12/10 03:59:41;;;;;;;14.35;8.65;;;15.90;78.40;;;;;;4158180;28;20049;-59
2021/12/10 04:02:06;;;;;;;13.20;7.97;;;15.90;77.80;;;;;;4147714;28;20528;-58
2021/12/10 04:04:32;;;;;;;18.65;8.85;;;15.90;77.50;;;;;;4125988;28;20046;-58
2021/12/10 04:06:56;;;;;;;12.07;7.70;;;16.00;77.30;;;;;;4126001;28;20422;-58
2021/12/10 04:09:18;;;;;;;12.48;7.93;;;16.00;76.90;;;;;;4114040;28;20532;-58
2021/12/10 04:11:41;;;;;;;16.42;9.27;;;16.00;76.70;;;;;;4141707;28;20094;-58
2021/12/10 04:14:05;;;;;;;15.77;8.32;;;16.00;77.50;;;;;;4141296;28;20069;-58
2021/12/10 04:16:29;;;;;;;16.67;8.27;;;16.00;76.40;;;;;;4141411;28;20042;-58
2021/12/10 04:18:55;;;;;;;10.95;8.10;;;16.00;76.70;;;;;;4139772;28;20413;-58
2021/12/10 04:21:18;;;;;;;13.70;8.35;;;15.90;76.80;;;;;;4125679;28;20129;-58
2021/12/10 04:23:41;;;;;;;10.98;8.55;;;15.90;76.90;;;;;;4125055;28;20054;-58
2021/12/10 04:26:04;;;;;;;15.88;8.93;;;16.00;77.00;;;;;;4124853;28;20081;-59
2021/12/10 04:28:26;;;;;;;16.20;9.70;;;16.00;76.80;;;;;;4126024;28;20050;-59
2021/12/10 04:30:49;;;;;;;14.52;9.45;;;16.00;76.50;;;;;;4149432;28;20045;-58
2021/12/10 04:33:15;;;;;;;13.13;9.10;;;15.90;76.30;;;;;;4158493;28;20059;-58
2021/12/10 04:35:39;;;;;;;12.35;10.07;;;15.90;76.40;;;;;;4138839;28;20082;-61
2021/12/10 04:38:02;;;;;;;18.25;9.40;;;15.90;76.90;;;;;;4128721;28;20050;-60
2021/12/10 04:40:25;;;;;;;16.02;9.88;;;15.90;77.20;;;;;;4129175;28;20050;-61
2021/12/10 04:42:47;;;;;;;15.35;9.73;;;15.90;76.80;;;;;;4156190;28;20045;-61
2021/12/10 04:45:10;;;;;;;15.65;9.93;;;16.00;76.70;;;;;;4161659;28;20065;-58
2021/12/10 04:47:34;;;;;;;14.88;10.25;;;16.00;76.70;;;;;;4161287;28;20412;-61
2021/12/10 04:49:57;;;;;;;17.88;9.25;;;16.00;76.70;;;;;;4161041;28;20088;-60
2021/12/10 04:52:21;;;;;;;18.67;11.27;;;16.00;76.70;;;;;;4144599;28;20046;-63
2021/12/10 04:54:44;;;;;;;13.98;10.60;;;16.00;76.60;;;;;;4152488;28;20140;-60
2021/12/10 04:57:07;;;;;;;19.73;11.55;;;16.00;76.70;;;;;;4129062;28;20054;-62
2021/12/10 04:59:32;;;;;;;16.58;11.40;;;16.10;76.20;;;;;;4129286;28;20142;-65
2021/12/10 05:01:56;;;;;;;13.10;10.10;;;16.10;75.50;;;;;;4129297;28;20046;-62
2021/12/10 05:04:19;;;;;;;16.50;11.63;;;16.10;75.60;;;;;;4129133;28;20058;-60
2021/12/10 05:06:42;;;;;;;14.45;11.00;;;16.00;75.60;;;;;;4121724;28;20069;-59
2021/12/10 05:09:08;;;;;;;15.65;11.93;;;16.00;75.60;;;;;;4111686;28;20050;-60
2021/12/10 05:11:30;;;;;;;17.52;11.38;;;16.00;75.70;;;;;;4112689;28;20078;-60
2021/12/10 05:13:52;;;;;;;14.95;11.57;;;16.00;76.90;;;;;;4113059;28;20050;-60
2021/12/10 05:16:15;;;;;;;18.98;11.18;;;15.90;76.00;;;;;;4112516;28;20062;-60
2021/12/10 05:18:40;;;;;;;18.38;11.70;;;15.90;75.90;;;;;;4123604;28;20062;-60
2021/12/10 05:21:05;;;;;;;19.73;12.98;;;15.90;75.90;;;;;;4128860;28;20435;-60
2021/12/10 05:23:27;;;;;;;15.07;12.25;;;15.90;76.50;;;;;;4127604;28;20474;-61
2021/12/10 05:25:51;;;;;;;14.82;12.23;;;15.90;76.50;;;;;;4118960;28;20517;-60
2021/12/10 05:28:15;;;;;;;18.42;11.98;;;15.90;76.30;;;;;;4128359;28;20046;-60
2021/12/10 05:30:37;;;;;;;14.32;11.07;;;15.90;76.00;;;;;;4128454;28;20461;-60
2021/12/10 05:33:01;;;;;;;18.85;12.18;;;15.90;76.20;;;;;;4128458;28;20054;-61
2021/12/10 05:35:24;;;;;;;16.88;11.55;;;15.80;76.10;;;;;;4125865;28;20054;-60
2021/12/10 05:37:46;;;;;;;17.92;12.50;;;15.80;76.60;;;;;;4096393;28;20055;-60
2021/12/10 05:40:12;;;;;;;19.42;13.32;;;15.80;77.00;;;;;;4096310;28;20506;-60
2021/12/10 05:42:35;;;;;;;17.05;12.00;;;15.80;77.30;;;;;;4097157;28;20067;-60
2021/12/10 05:44:57;;;;;;;19.17;13.32;;;15.90;77.10;;;;;;4096859;28;20054;-60
2021/12/10 05:47:20;;;;;;;20.50;13.77;;;15.90;76.30;;;;;;4127710;28;20053;-60
2021/12/10 05:49:42;;;;;;;15.95;12.88;;;16.00;75.60;;;;;;4127948;28;20453;-61
2021/12/10 05:52:06;;;;;;;19.58;13.73;;;16.00;75.50;;;;;;4128444;28;20050;-60
2021/12/10 05:54:27;;;;;;;16.08;12.73;;;16.00;75.20;;;;;;4128064;28;20049;-61
2021/12/10 05:56:49;;;;;;;16.88;13.25;;;16.00;75.00;;;;;;4111265;28;20066;-61
2021/12/10 05:59:13;;;;;;;28.27;13.30;;;16.00;76.00;;;;;;4111941;28;20086;-60
2021/12/10 06:01:35;;;;;;;24.25;14.20;;;16.00;75.00;;;;;;4111712;28;20106;-62
2021/12/10 06:03:57;;;;;;;16.17;13.20;;;15.90;75.60;;;;;;4111790;28;20054;-61
2021/12/10 06:06:21;;;;;;;14.52;12.75;;;15.80;76.00;;;;;;4125282;28;20042;-61
2021/12/10 06:08:44;;;;;;;16.23;12.75;;;15.90;75.40;;;;;;4096171;28;20047;-60
2021/12/10 06:11:07;;;;;;;13.25;11.85;;;15.90;75.70;;;;;;4095904;28;20126;-60
2021/12/10 06:13:31;;;;;;;15.45;12.43;;;15.90;76.30;;;;;;4095817;28;20058;-61
2021/12/10 06:15:54;;;;;;;16.55;12.30;;;15.90;75.20;;;;;;4113214;28;20082;-61
2021/12/10 06:18:16;;;;;;;13.23;11.80;;;15.90;74.40;;;;;;4127710;28;20092;-61
2021/12/10 06:20:40;;;;;;;14.30;12.80;;;15.80;74.90;;;;;;4127886;28;20043;-61
2021/12/10 06:23:03;;;;;;;17.33;12.75;;;15.80;75.70;;;;;;4127712;28;20042;-61
2021/12/10 06:25:25;;;;;;;15.00;12.43;;;15.70;75.00;;;;;;4127833;28;20483;-60
2021/12/10 06:27:48;;;;;;;15.80;12.52;;;15.60;75.50;;;;;;4118330;28;20106;-61
2021/12/10 06:30:11;;;;;;;14.48;12.80;;;15.60;76.10;;;;;;4111294;28;20054;-61
2021/12/10 06:32:34;;;;;;;15.27;13.68;;;15.60;76.10;;;;;;4111140;28;20059;-61
2021/12/10 06:34:56;;;;;;;14.35;12.68;;;15.70;75.80;;;;;;4111246;28;20051;-61
2021/12/10 06:37:18;;;;;;;13.88;12.40;;;15.70;75.60;;;;;;4111342;28;20051;-61
2021/12/10 06:39:41;;;;;;;12.93;11.25;;;15.80;76.40;;;;;;4118882;28;20042;-61
2021/12/10 06:42:03;;;;;;;13.43;12.02;;;15.80;75.20;;;;;;4127357;28;20050;-61
2021/12/10 06:44:25;;;;;;;12.38;10.50;;;15.80;74.90;;;;;;4126898;28;20108;-61
2021/12/10 06:46:48;;;;;;;14.10;11.52;;;15.90;74.80;;;;;;4127315;28;20042;-61
2021/12/10 06:49:12;;;;;;;13.45;10.68;;;15.90;74.60;;;;;;4115681;28;21396;-64
2021/12/10 06:51:34;;;;;;;13.73;10.75;;;15.90;74.30;;;;;;4111576;28;20137;-64
2021/12/10 06:53:56;;;;;;;13.35;10.68;;;15.90;74.40;;;;;;4111089;28;20046;-64
2021/12/10 06:56:19;;;;;;;10.20;9.20;;;15.90;74.80;;;;;;4135710;28;20375;-63
2021/12/10 06:58:43;;;;;;;10.43;9.32;;;15.90;75.00;;;;;;4126384;28;20042;-61
2021/12/10 07:01:09;;;;;;;10.20;8.68;;;15.90;75.10;;;;;;4126365;28;20061;-61
2021/12/10 07:03:31;;;;;;;10.63;8.98;;;15.90;74.70;;;;;;4149354;28;20053;-62
2021/12/10 07:05:57;;;;;;;9.90;8.27;;;15.90;74.40;;;;;;4138759;28;20556;-61
2021/12/10 07:08:20;;;;;;;10.10;8.20;;;15.90;74.60;;;;;;4126155;28;20451;-61
2021/12/10 07:10:42;;;;;;;9.05;7.95;;;15.90;74.70;;;;;;4126722;28;20471;-61
2021/12/10 07:13:06;;;;;;;8.73;7.88;;;15.90;74.40;;;;;;4126809;28;20054;-60
2021/12/10 07:15:28;;;;;;;10.88;8.70;;;15.90;74.00;;;;;;4143969;28;20049;-60
2021/12/10 07:17:52;;;;;;;9.27;7.93;;;15.90;74.30;;;;;;4158654;28;20057;-61
2021/12/10 07:20:17;;;;;;;9.38;7.70;;;15.80;73.80;;;;;;4158919;28;20128;-61
2021/12/10 07:22:40;;;;;;;9.73;7.53;;;15.80;74.50;;;;;;4140859;28;20054;-61
2021/12/10 07:25:03;;;;;;;8.43;7.57;;;15.90;75.80;;;;;;4125764;28;20053;-61
2021/12/10 07:27:28;;;;;;;9.35;7.00;;;15.90;74.00;;;;;;4142425;28;20053;-61
2021/12/10 07:29:50;;;;;;;8.32;6.82;;;16.00;73.20;;;;;;4158661;28;20508;-61
2021/12/10 07:32:12;;;;;;;9.10;7.57;;;16.00;73.20;;;;;;4158165;28;20057;-60
2021/12/10 07:34:37;;;;;;;6.82;6.18;;;16.10;73.30;;;;;;4155133;28;20057;-59
2021/12/10 07:36:58;;;;;;;8.43;7.65;;;16.00;71.90;;;;;;4141756;28;20493;-59
2021/12/10 07:39:22;;;;;;;7.97;7.00;;;16.00;72.30;;;;;;4140949;28;20116;-59
2021/12/10 07:41:44;;;;;;;8.52;6.68;;;16.00;71.30;;;;;;4142516;28;20061;-59
2021/12/10 07:44:06;;;;;;;7.30;6.53;;;15.90;71.50;;;;;;4142509;28;20038;-59
2021/12/10 07:46:28;;;;;;;8.98;7.15;;;15.80;70.50;;;;;;4125888;28;20054;-59
2021/12/10 07:48:51;;;;;;;7.35;6.35;;;15.70;71.40;;;;;;4126091;28;20482;-58
2021/12/10 07:51:17;;;;;;;8.35;6.40;;;15.70;71.60;;;;;;4140699;28;20049;-58
2021/12/10 07:53:40;;;;;;;8.65;6.38;;;15.60;70.90;;;;;;4141800;28;20046;-59
2021/12/10 07:56:06;;;;;;;7.07;6.28;;;15.50;71.90;;;;;;4125626;28;20077;-59
2021/12/10 07:58:28;;;;;;;7.05;6.25;;;15.50;70.80;;;;;;4141029;28;20054;-59
2021/12/10 08:00:51;;;;;;;6.05;5.47;;;15.60;70.20;;;;;;4137566;28;20054;-59
2021/12/10 08:03:13;;;;;;;8.68;6.15;;;15.60;69.80;;;;;;4142020;28;20046;-59
2021/12/10 08:05:36;;;;;;;8.02;6.03;;;15.60;70.00;;;;;;4142339;28;20068;-59
2021/12/10 08:07:59;;;;;;;7.63;5.97;;;15.60;70.70;;;;;;4142112;28;20461;-59
2021/12/10 08:10:21;;;;;;;7.15;6.43;;;15.60;70.30;;;;;;4142304;28;20049;-59
2021/12/10 08:12:44;;;;;;;6.57;5.75;;;15.60;68.90;;;;;;4145165;28;20481;-58
2021/12/10 08:15:08;;;;;;;5.72;5.22;;;15.60;69.30;;;;;;4146947;28;20046;-58
2021/12/10 08:17:30;;;;;;;6.32;5.72;;;15.60;70.10;;;;;;4145491;28;20042;-58
2021/12/10 08:19:53;;;;;;;8.20;5.50;;;15.70;70.20;;;;;;4145984;28;20050;-58
2021/12/10 08:22:15;;;;;;;7.07;5.50;;;15.80;69.80;;;;;;4145622;28;20054;-58
2021/12/10 08:24:38;;;;;;;7.38;6.25;;;15.90;68.60;;;;;;4145288;28;20143;-57
2021/12/10 08:27:00;;;;;;;9.02;5.68;;;16.00;68.40;;;;;;4161552;28;20420;-59
2021/12/10 08:29:25;;;;;;;8.07;5.70;;;16.10;67.80;;;;;;4161683;28;20050;-58
2021/12/10 08:31:47;;;;;;;8.52;6.47;;;16.10;67.60;;;;;;4160677;28;20057;-59
2021/12/10 08:34:10;;;;;;;6.78;5.80;;;16.10;67.70;;;;;;4155238;28;20046;-58
2021/12/10 08:36:34;;;;;;;6.30;5.68;;;16.10;67.70;;;;;;4142595;28;20474;-57
2021/12/10 08:38:56;;;;;;;7.70;5.40;;;16.20;67.50;;;;;;4142443;28;20418;-58
2021/12/10 08:41:23;;;;;;;6.53;5.60;;;16.20;66.90;;;;;;4143430;28;20072;-58
2021/12/10 08:43:46;;;;;;;9.23;6.13;;;16.20;66.50;;;;;;4134188;28;20053;-57
2021/12/10 08:46:10;;;;;;;7.60;6.40;;;16.10;66.90;;;;;;4144404;28;20072;-59
2021/12/10 08:48:34;;;;;;;8.27;5.70;;;16.10;66.70;;;;;;4124823;28;20070;-58
2021/12/10 08:50:58;;;;;;;6.45;5.63;;;16.00;66.90;;;;;;4128577;28;20054;-60
2021/12/10 08:53:20;;;;;;;6.90;5.47;;;15.90;67.50;;;;;;4131617;28;20054;-58
2021/12/10 08:55:44;;;;;;;9.05;6.07;;;15.90;67.80;;;;;;4140633;28;20065;-59
2021/12/10 08:58:07;;;;;;;7.47;5.45;;;15.90;68.10;;;;;;4140448;28;20124;-58
2021/12/10 09:00:30;;;;;;;8.23;5.95;;;16.00;67.90;;;;;;4140652;28;20050;-58
2021/12/10 09:02:56;;;;;;;8.27;5.25;;;15.90;67.60;;;;;;4140974;28;20075;-58
2021/12/10 09:05:19;;;;;;;6.97;5.75;;;15.90;67.60;;;;;;4141066;28;20042;-59
2021/12/10 09:07:44;;;;;;;6.55;5.03;;;15.90;67.50;;;;;;4140701;28;20456;-58
2021/12/10 09:10:09;;;;;;;5.22;4.75;;;15.90;67.90;;;;;;4141120;28;20120;-59
2021/12/10 09:12:31;;;;;;;6.55;5.22;;;15.90;68.10;;;;;;4141417;28;20061;-59
2021/12/10 09:14:55;;;;;;;6.03;5.20;;;15.90;67.70;;;;;;4141889;28;20409;-59
2021/12/10 09:17:23;;;;;;;6.57;5.15;;;15.90;66.90;;;;;;4141797;28;20058;-59
2021/12/10 09:19:52;;;;;;;5.65;4.78;;;15.90;66.60;;;;;;4141500;28;20739;-60
2021/12/10 09:22:14;;;;;;;5.97;5.35;;;15.90;66.40;;;;;;4125215;28;20129;-59
2021/12/10 09:24:37;;;;;;;6.85;5.35;;;15.90;67.40;;;;;;4141430;28;20137;-59
2021/12/10 09:27:01;;;;;;;6.97;5.03;;;15.90;67.40;;;;;;4141578;28;20072;-59
2021/12/10 09:29:25;;;;;;;5.72;5.13;;;15.80;67.40;;;;;;4141272;28;20057;-59
2021/12/10 09:31:48;;;;;;;6.60;4.90;;;15.70;67.70;;;;;;4141635;28;20045;-59
2021/12/10 09:34:12;;;;;;;7.53;5.97;;;15.70;68.20;;;;;;4141544;28;20050;-59
2021/12/10 09:36:35;;;;;;;5.82;5.15;;;15.60;68.10;;;;;;4126828;28;20050;-59
2021/12/10 09:38:57;;;;;;;7.22;4.93;;;15.60;67.80;;;;;;4141594;28;20139;-59
2021/12/10 09:41:22;;;;;;;7.43;5.90;;;15.60;67.50;;;;;;4141589;28;20052;-59
2021/12/10 09:43:44;;;;;;;6.18;5.13;;;15.60;67.80;;;;;;4140740;28;20054;-59
2021/12/10 09:46:09;;;;;;;5.65;5.15;;;15.60;68.30;;;;;;4141254;28;20164;-59
2021/12/10 09:48:32;;;;;;;6.68;5.95;;;15.50;68.30;;;;;;4141654;28;20517;-59
2021/12/10 09:50:58;;;;;;;6.80;5.60;;;15.50;69.30;;;;;;4141414;28;20057;-59
2021/12/10 09:53:23;;;;;;;5.50;5.03;;;15.50;68.50;;;;;;4126068;28;20058;-59
2021/12/10 09:55:46;;;;;;;6.25;5.65;;;15.60;68.10;;;;;;4140080;28;20053;-59
2021/12/10 09:58:09;;;;;;;6.05;5.45;;;15.50;67.50;;;;;;4139948;28;20057;-59
2021/12/10 10:00:36;;;;;;;6.07;5.47;;;15.50;67.70;;;;;;4140081;28;20498;-59
2021/12/10 10:02:58;;;;;;;6.47;5.32;;;15.50;67.20;;;;;;4141133;28;20046;-59
2021/12/10 10:05:26;;;;;;;5.38;5.00;;;15.40;67.50;;;;;;4140449;28;20070;-60
2021/12/10 10:07:51;;;;;;;5.40;4.90;;;15.40;68.20;;;;;;4140754;28;20053;-60
2021/12/10 10:10:19;;;;;;;6.53;5.82;;;15.30;68.30;;;;;;4140542;28;20052;-59
2021/12/10 10:12:44;;;;;;;6.18;5.35;;;15.30;68.60;;;;;;4140221;28;20583;-59
2021/12/10 10:15:11;;;;;;;6.07;5.40;;;15.30;69.40;;;;;;4140124;28;20155;-59
2021/12/10 10:17:47;;;;;;;5.50;4.88;;;15.30;69.30;;;;;;4140699;28;20513;-59
2021/12/10 10:20:12;;;;;;;7.10;5.30;;;15.40;69.10;;;;;;4140494;28;20084;-59
2021/12/10 10:22:35;;;;;;;8.02;5.25;;;15.40;68.90;;;;;;4138284;28;20069;-59
2021/12/10 10:24:58;;;;;;;8.85;5.38;;;15.40;68.70;;;;;;4139255;28;20405;-60
2021/12/10 10:27:24;;;;;;;5.00;4.10;;;15.50;68.20;;;;;;4141420;28;20050;-59
2021/12/10 10:29:49;;;;;;;4.55;3.92;;;15.50;67.70;;;;;;4140743;28;20054;-59
2021/12/10 10:32:15;;;;;;;6.75;4.60;;;15.40;67.90;;;;;;4140437;28;20053;-59
2021/12/10 10:34:41;;;;;;;10.55;5.32;;;15.40;68.20;;;;;;4139949;28;20137;-59
2021/12/10 10:37:04;;;;;;;6.00;4.18;;;15.40;68.30;;;;;;4140545;28;20046;-59
2021/12/10 10:39:33;;;;;;;5.13;4.63;;;15.30;68.70;;;;;;4140543;28;20046;-59
2021/12/10 10:41:57;;;;;;;6.05;4.78;;;15.30;68.30;;;;;;4139778;28;20713;-59
2021/12/10 10:44:41;;;;;;;6.82;4.90;;;15.30;68.70;;;;;;4111570;28;20057;-59
2021/12/10 10:47:04;;;;;;;9.15;4.72;;;15.20;69.10;;;;;;4125308;28;20430;-58
2021/12/10 10:49:38;;;;;;;4.82;4.43;;;15.20;69.30;;;;;;4139745;28;20050;-59
2021/12/10 10:52:14;;;;;;;6.30;4.90;;;15.20;68.80;;;;;;4139672;28;20045;-60
2021/12/10 10:54:36;;;;;;;5.13;4.60;;;15.30;68.20;;;;;;4140335;28;20073;-59
2021/12/10 10:56:58;;;;;;;5.25;4.55;;;15.40;68.70;;;;;;4140791;28;20054;-59
2021/12/10 10:59:26;;;;;;;4.95;4.35;;;15.40;68.20;;;;;;4140593;28;20146;-59
2021/12/10 11:01:59;;;;;;;5.05;4.30;;;15.40;67.00;;;;;;4139202;28;20053;-59
2021/12/10 11:04:26;;;;;;;4.68;4.20;;;15.50;67.60;;;;;;4140016;28;20054;-59
2021/12/10 11:06:52;;;;;;;5.32;4.05;;;15.50;68.10;;;;;;4140225;28;20049;-59
2021/12/10 11:09:17;;;;;;;6.22;4.20;;;15.40;67.50;;;;;;4140606;28;20064;-59
2021/12/10 11:11:45;;;;;;;7.63;4.72;;;15.40;68.40;;;;;;4140158;28;20473;-59
2021/12/10 11:14:10;;;;;;;4.95;4.32;;;15.40;68.50;;;;;;4139663;28;20045;-59
2021/12/10 11:16:35;;;;;;;6.32;4.72;;;15.30;68.70;;;;;;4139160;28;20052;-59
2021/12/10 11:19:05;;;;;;;5.15;4.63;;;15.30;69.10;;;;;;4139730;28;20050;-58
2021/12/10 11:21:40;;;;;;;5.05;4.55;;;15.30;68.10;;;;;;4139196;28;20103;-58
2021/12/10 11:24:16;;;;;;;4.80;4.10;;;15.20;67.70;;;;;;4139436;28;20045;-58
2021/12/10 11:26:48;;;;;;;6.07;4.43;;;15.20;68.60;;;;;;4139533;28;20050;-58
2021/12/10 11:29:36;;;;;;;4.72;4.30;;;15.20;67.60;;;;;;4138942;28;20501;-58
2021/12/10 11:31:59;;;;;;;5.88;4.15;;;15.20;67.80;;;;;;4138593;28;20065;-59
2021/12/10 11:34:44;;;;;;;5.05;4.53;;;15.20;69.30;;;;;;4139392;28;20147;-58
2021/12/10 11:37:08;;;;;;;5.03;4.45;;;15.10;68.00;;;;;;4139462;28;20129;-58
2021/12/10 11:39:42;;;;;;;6.57;4.55;;;15.10;69.80;;;;;;4139905;28;20441;-59
2021/12/10 11:42:32;;;;;;;5.20;4.30;;;15.10;68.60;;;;;;4139745;28;20478;-58
2021/12/10 11:45:17;;;;;;;4.57;3.95;;;15.10;68.00;;;;;;4139143;28;20064;-59
2021/12/10 11:47:51;;;;;;;9.07;4.50;;;15.10;69.70;;;;;;4139748;28;20054;-58
2021/12/10 11:50:21;;;;;;;5.25;4.25;;;15.00;69.60;;;;;;4139452;28;20049;-59
2021/12/10 11:52:43;;;;;;;6.50;4.07;;;15.00;69.00;;;;;;4139198;28;20054;-59
2021/12/10 11:55:09;;;;;;;4.57;4.15;;;15.00;69.20;;;;;;4139438;28;20060;-59
2021/12/10 11:57:35;;;;;;;5.18;3.70;;;14.90;68.40;;;;;;4139434;28;20423;-58
2021/12/10 11:59:59;;;;;;;5.65;4.55;;;14.90;70.20;;;;;;4139524;28;20065;-62
2021/12/10 12:02:25;;;;;;;5.97;4.45;;;14.90;69.60;;;;;;4139747;28;20058;-62
2021/12/10 12:04:49;;;;;;;3.88;3.55;;;14.90;68.20;;;;;;4138629;28;20057;-59
2021/12/10 12:07:29;;;;;;;5.30;4.38;;;14.80;67.60;;;;;;4139641;28;21202;-59
2021/12/10 12:09:54;;;;;;;4.13;3.83;;;14.70;65.50;;;;;;4139064;28;20056;-59
2021/12/10 12:12:19;;;;;;;4.47;4.07;;;14.70;65.70;;;;;;4139453;28;20057;-59
2021/12/10 12:14:48;;;;;;;6.90;5.05;;;14.70;65.40;;;;;;4139649;28;20061;-59
2021/12/10 12:17:28;;;;;;;4.13;3.72;;;14.60;63.70;;;;;;4139531;28;20481;-59
2021/12/10 12:19:50;;;;;;;4.60;4.05;;;14.60;63.60;;;;;;4138513;28;20489;-58
2021/12/10 12:25:09;;;;;;;4.97;3.58;;;14.50;64.90;;;;;;4139124;28;20046;-59
2021/12/10 12:27:31;;;;;;;4.63;4.10;;;14.40;65.90;;;;;;4138567;28;20422;-59
2021/12/10 12:30:06;;;;;;;4.45;4.05;;;14.40;66.70;;;;;;4138986;28;20042;-58
2021/12/10 12:32:37;;;;;;;6.30;4.15;;;14.30;66.40;;;;;;4139403;28;20081;-57